createdAt,value
2022-10-17T00:00:55.464Z,13.10
2022-10-17T00:03:23.471Z,13.10
2022-10-17T00:05:51.539Z,13.10
2022-10-17T00:08:19.935Z,13.00
2022-10-17T00:10:57.493Z,13.00
2022-10-17T00:13:25.861Z,13.00
2022-10-17T00:15:55.326Z,13.00
2022-10-17T00:18:23.724Z,13.00
2022-10-17T00:20:51.863Z,13.00
2022-10-17T00:23:19.937Z,13.00
2022-10-17T00:25:48.059Z,12.90
2022-10-17T00:28:17.173Z,12.90
2022-10-17T00:30:45.208Z,12.90
2022-10-17T00:33:14.573Z,12.90
2022-10-17T00:35:42.586Z,12.90
2022-10-17T00:38:10.567Z,12.90
2022-10-17T00:40:38.599Z,12.90
2022-10-17T00:43:07.646Z,12.80
2022-10-17T00:45:35.684Z,12.80
2022-10-17T00:48:08.487Z,12.80
2022-10-17T00:50:40.850Z,12.80
2022-10-17T00:53:10.573Z,12.80
2022-10-17T00:55:46.032Z,12.80
2022-10-17T00:58:14.086Z,12.70
2022-10-17T01:00:43.158Z,12.70
2022-10-17T01:03:11.203Z,12.60
2022-10-17T01:05:42.375Z,12.70
2022-10-17T01:08:11.183Z,12.70
2022-10-17T01:10:50.296Z,12.60
2022-10-17T01:13:25.478Z,12.70
2022-10-17T01:16:00.975Z,12.60
2022-10-17T01:18:38.639Z,12.60
2022-10-17T01:21:39.467Z,12.60
2022-10-17T01:24:44.196Z,12.60
2022-10-17T01:27:46.008Z,12.60
2022-10-17T01:30:52.793Z,12.50
2022-10-17T01:33:33.475Z,12.50
2022-10-17T01:36:07.876Z,12.50
2022-10-17T01:38:40.359Z,12.40
2022-10-17T01:41:14.821Z,12.40
2022-10-17T01:43:49.782Z,12.40
2022-10-17T01:46:23.244Z,12.40
2022-10-17T01:48:54.779Z,12.40
2022-10-17T01:51:27.726Z,12.40
2022-10-17T01:54:02.732Z,12.40
2022-10-17T01:56:32.682Z,12.40
2022-10-17T01:59:05.582Z,12.30
2022-10-17T02:01:35.300Z,12.30
2022-10-17T02:04:06.583Z,12.30
2022-10-17T02:06:36.903Z,12.30
2022-10-17T02:09:18.438Z,12.30
2022-10-17T02:11:58.243Z,12.30
2022-10-17T02:14:39.017Z,12.30
2022-10-17T02:17:16.607Z,12.30
2022-10-17T02:19:56.565Z,12.20
2022-10-17T02:22:33.823Z,12.30
2022-10-17T02:25:10.765Z,12.30
2022-10-17T02:27:46.186Z,12.20
2022-10-17T02:30:21.373Z,12.30
2022-10-17T02:32:54.215Z,12.20
2022-10-17T02:35:27.066Z,12.20
2022-10-17T02:37:56.321Z,12.20
2022-10-17T02:40:26.567Z,12.20
2022-10-17T02:42:56.766Z,12.20
2022-10-17T02:45:27.498Z,12.20
2022-10-17T02:48:00.637Z,12.20
2022-10-17T02:50:40.156Z,12.20
2022-10-17T02:53:13.571Z,12.20
2022-10-17T02:55:48.967Z,12.20
2022-10-17T02:58:21.651Z,12.10
2022-10-17T03:00:50.611Z,12.10
2022-10-17T03:03:24.074Z,12.10
2022-10-17T03:05:54.294Z,12.10
2022-10-17T03:08:22.814Z,12.00
2022-10-17T03:10:51.108Z,12.00
2022-10-17T03:13:19.358Z,12.00
2022-10-17T03:15:47.501Z,12.00
2022-10-17T03:18:15.766Z,12.00
2022-10-17T03:20:43.780Z,12.00
2022-10-17T03:23:13.156Z,11.90
2022-10-17T03:25:41.542Z,11.90
2022-10-17T03:28:10.522Z,11.90
2022-10-17T03:30:39.738Z,11.90
2022-10-17T03:33:07.710Z,12.00
2022-10-17T03:35:35.752Z,12.00
2022-10-17T03:38:03.732Z,11.90
2022-10-17T03:40:33.109Z,11.90
2022-10-17T03:43:01.093Z,11.90
2022-10-17T03:45:29.366Z,11.90
2022-10-17T03:47:57.339Z,11.90
2022-10-17T03:50:25.356Z,11.90
2022-10-17T03:52:53.368Z,11.90
2022-10-17T03:55:21.386Z,11.90
2022-10-17T03:57:50.738Z,11.90
2022-10-17T04:00:18.762Z,11.90
2022-10-17T04:02:46.725Z,11.90
2022-10-17T04:05:14.925Z,11.90
2022-10-17T04:07:42.928Z,11.90
2022-10-17T04:10:11.383Z,11.90
2022-10-17T04:12:39.370Z,11.90
2022-10-17T04:15:10.360Z,11.90
2022-10-17T04:17:38.469Z,11.80
2022-10-17T04:20:07.411Z,11.80
2022-10-17T04:22:35.556Z,11.80
2022-10-17T04:25:03.733Z,11.80
2022-10-17T04:27:31.742Z,11.70
2022-10-17T04:29:59.787Z,11.70
2022-10-17T04:32:29.344Z,11.70
2022-10-17T04:34:57.584Z,11.70
2022-10-17T04:37:25.667Z,11.80
2022-10-17T04:39:53.671Z,11.80
2022-10-17T04:42:21.801Z,11.80
2022-10-17T04:44:49.880Z,11.80
2022-10-17T04:47:17.954Z,11.80
2022-10-17T04:49:47.531Z,11.80
2022-10-17T04:52:16.146Z,11.80
2022-10-17T04:54:44.257Z,11.80
2022-10-17T04:57:12.415Z,11.80
2022-10-17T04:59:40.480Z,11.90
2022-10-17T05:02:08.884Z,11.80
2022-10-17T05:04:36.940Z,11.90
2022-10-17T05:07:06.347Z,11.80
2022-10-17T05:09:34.370Z,11.80
2022-10-17T05:12:04.336Z,11.80
2022-10-17T05:14:34.678Z,11.80
2022-10-17T05:17:02.683Z,11.80
2022-10-17T05:19:30.703Z,11.80
2022-10-17T05:21:58.727Z,11.80
2022-10-17T05:24:28.178Z,11.80
2022-10-17T05:26:56.768Z,11.80
2022-10-17T05:29:24.853Z,11.80
2022-10-17T05:31:53.006Z,11.80
2022-10-17T05:34:21.056Z,11.80
2022-10-17T05:36:49.143Z,11.80
2022-10-17T05:39:19.631Z,11.80
2022-10-17T05:41:49.128Z,11.80
2022-10-17T05:44:17.886Z,11.80
2022-10-17T05:46:45.905Z,11.70
2022-10-17T05:49:19.653Z,11.70
2022-10-17T05:51:59.789Z,11.70
2022-10-17T05:54:28.147Z,11.70
2022-10-17T05:56:57.871Z,11.70
2022-10-17T05:59:26.679Z,11.70
2022-10-17T06:01:55.385Z,11.80
2022-10-17T06:04:23.493Z,11.80
2022-10-17T06:06:51.559Z,11.90
2022-10-17T06:09:19.567Z,11.90
2022-10-17T06:11:47.591Z,11.80
2022-10-17T06:14:16.979Z,11.90
2022-10-17T06:16:45.055Z,11.90
2022-10-17T06:19:13.056Z,11.90
2022-10-17T06:21:41.142Z,12.00
2022-10-17T06:24:09.152Z,12.00
2022-10-17T06:26:37.177Z,12.10
2022-10-17T06:29:05.327Z,12.10
2022-10-17T06:31:34.776Z,12.10
2022-10-17T06:34:02.752Z,12.20
2022-10-17T06:36:30.749Z,12.20
2022-10-17T06:38:58.748Z,12.30
2022-10-17T06:41:26.787Z,12.30
2022-10-17T06:43:54.844Z,12.40
2022-10-17T06:46:24.672Z,12.50
2022-10-17T06:48:54.152Z,12.50
2022-10-17T06:51:22.237Z,12.60
2022-10-17T06:53:50.295Z,12.70
2022-10-17T06:56:19.398Z,12.90
2022-10-17T06:58:49.446Z,13.00
2022-10-17T07:01:17.526Z,13.30
2022-10-17T07:03:48.366Z,13.60
2022-10-17T07:06:18.083Z,13.80
2022-10-17T07:08:47.004Z,13.90
2022-10-17T07:11:17.041Z,14.20
2022-10-17T07:13:45.671Z,14.30
2022-10-17T07:16:14.735Z,14.40
2022-10-17T07:18:43.872Z,14.40
2022-10-17T07:21:11.975Z,14.60
2022-10-17T07:23:41.608Z,14.70
2022-10-17T07:26:11.941Z,15.00
2022-10-17T07:28:41.391Z,15.20
2022-10-17T07:31:11.383Z,15.40
2022-10-17T07:33:39.702Z,15.50
2022-10-17T07:36:08.442Z,15.60
2022-10-17T07:38:38.005Z,15.60
2022-10-17T07:41:10.241Z,15.50
2022-10-17T07:43:38.865Z,15.40
2022-10-17T07:46:08.383Z,15.40
2022-10-17T07:48:36.627Z,15.40
2022-10-17T07:51:06.311Z,15.30
2022-10-17T07:53:36.477Z,15.30
2022-10-17T07:56:08.305Z,15.40
2022-10-17T07:58:37.059Z,15.40
2022-10-17T08:01:08.398Z,15.40
2022-10-17T08:03:38.943Z,15.60
2022-10-17T08:06:07.211Z,15.60
2022-10-17T08:08:35.472Z,15.70
2022-10-17T08:11:04.992Z,15.80
2022-10-17T08:13:35.143Z,15.90
2022-10-17T08:16:04.233Z,16.00
2022-10-17T08:18:32.674Z,16.00
2022-10-17T08:21:01.337Z,16.10
2022-10-17T08:23:29.508Z,16.10
2022-10-17T08:26:00.824Z,16.20
2022-10-17T08:28:29.082Z,16.40
2022-10-17T08:31:05.271Z,16.40
2022-10-17T08:33:33.543Z,16.60
2022-10-17T08:36:02.078Z,16.60
2022-10-17T08:38:34.638Z,16.60
2022-10-17T08:41:05.600Z,16.70
2022-10-17T08:43:44.919Z,16.70
2022-10-17T08:48:46.701Z,16.90
2022-10-17T08:51:18.018Z,17.10
2022-10-17T08:53:51.980Z,17.10
2022-10-17T08:56:25.180Z,17.20
2022-10-17T08:59:13.810Z,17.30
2022-10-17T09:01:51.191Z,17.30
2022-10-17T09:04:49.728Z,17.30
2022-10-17T09:07:23.424Z,17.30
2022-10-17T09:10:00.259Z,17.40
2022-10-17T09:12:36.903Z,17.40
2022-10-17T09:15:24.916Z,17.50
2022-10-17T09:17:59.347Z,17.60
2022-10-17T09:20:29.936Z,17.60
2022-10-17T09:23:00.808Z,17.70
2022-10-17T09:25:29.390Z,17.70
2022-10-17T09:28:05.710Z,17.80
2022-10-17T09:30:46.243Z,17.80
2022-10-17T09:33:28.521Z,17.90
2022-10-17T09:36:11.061Z,18.00
2022-10-17T09:38:42.500Z,18.10
2022-10-17T09:41:43.110Z,18.20
2022-10-17T09:44:18.873Z,18.20
2022-10-17T09:47:10.529Z,18.30
2022-10-17T09:49:41.583Z,18.40
2022-10-17T09:52:14.954Z,18.40
2022-10-17T09:54:46.079Z,18.40
2022-10-17T09:57:16.123Z,18.50
2022-10-17T09:59:46.811Z,18.50
2022-10-17T10:02:21.613Z,18.60
2022-10-17T10:05:06.444Z,18.70
2022-10-17T10:07:37.522Z,18.70
2022-10-17T10:10:08.166Z,18.80
2022-10-17T10:12:38.741Z,18.80
2022-10-17T10:15:33.446Z,18.90
2022-10-17T10:18:01.743Z,19.00
2022-10-17T10:20:34.082Z,19.10
2022-10-17T10:23:14.539Z,19.20
2022-10-17T10:25:55.645Z,19.30
2022-10-17T10:28:28.069Z,19.40
2022-10-17T10:30:57.771Z,19.40
2022-10-17T10:33:29.387Z,19.40
2022-10-17T10:36:01.818Z,19.50
2022-10-17T10:38:31.339Z,19.60
2022-10-17T10:41:04.590Z,19.70
2022-10-17T10:43:36.899Z,19.80
2022-10-17T10:46:07.462Z,19.90
2022-10-17T10:48:37.062Z,20.00
2022-10-17T10:51:12.936Z,20.00
2022-10-17T10:53:48.188Z,20.00
2022-10-17T10:56:20.621Z,20.10
2022-10-17T10:58:55.012Z,20.10
2022-10-17T11:01:31.181Z,20.10
2022-10-17T11:04:08.942Z,20.20
2022-10-17T11:06:42.183Z,20.20
2022-10-17T11:09:30.069Z,20.40
2022-10-17T11:12:07.210Z,20.30
2022-10-17T11:14:44.528Z,20.40
2022-10-17T11:17:21.192Z,20.50
2022-10-17T11:19:57.366Z,20.60
2022-10-17T11:22:30.934Z,20.60
2022-10-17T11:25:02.004Z,20.60
2022-10-17T11:27:31.839Z,20.60
2022-10-17T11:30:00.179Z,20.70
2022-10-17T11:32:32.857Z,20.70
2022-10-17T11:35:06.655Z,20.70
2022-10-17T11:37:40.753Z,20.70
2022-10-17T11:40:20.471Z,20.70
2022-10-17T11:42:56.087Z,20.70
2022-10-17T11:45:27.478Z,20.60
2022-10-17T11:47:59.870Z,20.70
2022-10-17T11:53:22.748Z,20.70
2022-10-17T11:55:53.618Z,20.70
2022-10-17T11:58:34.044Z,20.80
2022-10-17T12:01:13.555Z,20.80
2022-10-17T12:03:53.117Z,20.80
2022-10-17T12:06:33.363Z,20.80
2022-10-17T12:09:12.994Z,20.80
2022-10-17T12:11:53.952Z,20.80
2022-10-17T12:14:42.992Z,20.80
2022-10-17T12:17:29.354Z,20.80
2022-10-17T12:20:27.286Z,20.90
2022-10-17T12:22:57.227Z,20.90
2022-10-17T12:25:31.479Z,21.00
2022-10-17T12:28:14.333Z,21.10
2022-10-17T12:30:57.573Z,21.10
2022-10-17T12:33:33.988Z,21.10
2022-10-17T12:36:50.385Z,21.20
2022-10-17T12:39:52.435Z,21.20
2022-10-17T12:42:51.257Z,21.10
2022-10-17T12:45:51.432Z,21.10
2022-10-17T12:49:00.357Z,21.00
2022-10-17T12:51:37.898Z,21.10
2022-10-17T12:54:12.525Z,21.10
2022-10-17T12:56:42.524Z,21.10
2022-10-17T12:59:18.821Z,21.30
2022-10-17T13:01:49.476Z,21.40
2022-10-17T13:04:18.846Z,21.50
2022-10-17T13:06:49.236Z,21.60
2022-10-17T13:09:26.864Z,21.60
2022-10-17T13:11:57.447Z,21.60
2022-10-17T13:14:28.031Z,21.60
2022-10-17T13:16:58.417Z,21.50
2022-10-17T13:19:28.301Z,21.50
2022-10-17T13:21:59.821Z,21.50
2022-10-17T13:24:33.856Z,21.40
2022-10-17T13:27:03.128Z,21.40
2022-10-17T13:29:33.118Z,21.40
2022-10-17T13:32:04.106Z,21.40
2022-10-17T13:34:33.646Z,21.50
2022-10-17T13:37:05.396Z,21.40
2022-10-17T13:39:54.427Z,21.40
2022-10-17T13:42:26.986Z,21.40
2022-10-17T13:44:57.094Z,21.40
2022-10-17T13:47:27.863Z,21.30
2022-10-17T13:49:57.527Z,21.40
2022-10-17T13:52:28.460Z,21.40
2022-10-17T13:55:07.680Z,21.40
2022-10-17T13:57:35.686Z,21.40
2022-10-17T14:00:11.635Z,21.40
2022-10-17T14:02:42.349Z,21.40
2022-10-17T14:05:18.638Z,21.50
2022-10-17T14:08:11.172Z,21.40
2022-10-17T14:10:41.221Z,21.40
2022-10-17T14:13:19.997Z,21.40
2022-10-17T14:15:49.936Z,21.40
2022-10-17T14:18:22.090Z,21.40
2022-10-17T14:23:41.155Z,21.40
2022-10-17T14:26:15.074Z,21.30
2022-10-17T14:28:45.703Z,21.30
2022-10-17T14:31:27.578Z,21.30
2022-10-17T14:33:55.946Z,21.10
2022-10-17T14:36:38.484Z,21.10
2022-10-17T14:39:13.399Z,21.10
2022-10-17T14:41:45.589Z,21.00
2022-10-17T14:44:25.190Z,21.00
2022-10-17T14:46:59.395Z,20.90
2022-10-17T14:49:33.531Z,20.90
2022-10-17T14:52:28.369Z,20.90
2022-10-17T14:54:57.873Z,20.80
2022-10-17T14:57:29.479Z,20.80
2022-10-17T14:59:58.412Z,20.70
2022-10-17T15:02:31.203Z,20.70
2022-10-17T15:04:59.461Z,20.70
2022-10-17T15:07:27.480Z,20.60
2022-10-17T15:09:55.460Z,20.50
2022-10-17T15:12:26.195Z,20.50
2022-10-17T15:14:54.800Z,20.40
2022-10-17T15:17:25.400Z,20.40
2022-10-17T15:19:55.020Z,20.30
2022-10-17T15:22:23.317Z,20.30
2022-10-17T15:24:51.678Z,20.20
2022-10-17T15:27:21.979Z,20.20
2022-10-17T15:29:50.544Z,20.20
2022-10-17T15:32:18.792Z,20.20
2022-10-17T15:34:47.040Z,20.10
2022-10-17T15:37:20.979Z,20.10
2022-10-17T15:39:53.363Z,20.10
2022-10-17T15:42:22.974Z,20.10
2022-10-17T15:44:51.128Z,20.10
2022-10-17T15:47:25.476Z,20.10
2022-10-17T15:49:54.159Z,20.00
2022-10-17T15:52:23.666Z,20.00
2022-10-17T15:54:51.849Z,19.90
2022-10-17T15:57:21.999Z,19.90
2022-10-17T15:59:52.139Z,19.80
2022-10-17T16:02:24.183Z,19.80
2022-10-17T16:04:53.247Z,19.80
2022-10-17T16:07:23.290Z,19.80
2022-10-17T16:09:51.343Z,19.70
2022-10-17T16:14:54.793Z,19.60
2022-10-17T16:17:22.786Z,19.60
2022-10-17T16:19:50.791Z,19.50
2022-10-17T16:22:26.897Z,19.40
2022-10-17T16:24:58.657Z,19.40
2022-10-17T16:27:27.315Z,19.30
2022-10-17T16:29:55.319Z,19.30
2022-10-17T16:32:23.294Z,19.30
2022-10-17T16:34:51.361Z,19.30
2022-10-17T16:37:19.339Z,19.30
2022-10-17T16:39:52.523Z,19.20
2022-10-17T16:42:21.215Z,19.20
2022-10-17T16:44:49.311Z,19.20
2022-10-17T16:47:17.711Z,19.10
2022-10-17T16:49:45.767Z,19.10
2022-10-17T16:52:14.138Z,19.10
2022-10-17T16:54:42.137Z,19.10
2022-10-17T16:57:11.541Z,19.10
2022-10-17T16:59:39.541Z,19.10
2022-10-17T17:02:07.984Z,19.00
2022-10-17T17:04:36.015Z,19.00
2022-10-17T17:07:04.044Z,19.00
2022-10-17T17:09:32.046Z,19.00
2022-10-17T17:12:00.050Z,18.90
2022-10-17T17:14:29.455Z,18.80
2022-10-17T17:16:57.463Z,18.70
2022-10-17T17:19:25.618Z,18.60
2022-10-17T17:21:53.641Z,18.50
2022-10-17T17:24:22.392Z,18.40
2022-10-17T17:26:53.258Z,18.40
2022-10-17T17:29:21.465Z,18.30
2022-10-17T17:31:50.998Z,18.30
2022-10-17T17:34:19.099Z,18.20
2022-10-17T17:36:47.586Z,18.20
2022-10-17T17:39:16.544Z,18.10
2022-10-17T17:41:45.798Z,18.10
2022-10-17T17:44:16.738Z,18.10
2022-10-17T17:46:45.531Z,18.10
2022-10-17T17:49:14.938Z,18.00
2022-10-17T17:51:46.306Z,18.00
2022-10-17T17:54:14.783Z,17.90
2022-10-17T17:56:42.984Z,17.90
2022-10-17T17:59:13.401Z,17.90
2022-10-17T18:01:41.558Z,17.80
2022-10-17T18:04:10.306Z,17.80
2022-10-17T18:06:40.402Z,17.70
2022-10-17T18:09:09.066Z,17.60
2022-10-17T18:11:38.323Z,17.50
2022-10-17T18:14:12.228Z,17.50
2022-10-17T18:16:40.262Z,17.40
2022-10-17T18:19:09.891Z,17.40
2022-10-17T18:21:39.387Z,17.30
2022-10-17T18:24:08.278Z,17.30
2022-10-17T18:26:36.599Z,17.30
2022-10-17T18:29:05.133Z,17.30
2022-10-17T18:31:35.856Z,17.20
2022-10-17T18:34:06.072Z,17.20
2022-10-17T18:36:35.575Z,17.20
2022-10-17T18:39:06.124Z,17.10
2022-10-17T18:41:34.696Z,17.10
2022-10-17T18:44:03.895Z,17.10
2022-10-17T18:46:40.454Z,17.00
2022-10-17T18:49:09.215Z,17.00
2022-10-17T18:51:37.946Z,17.00
2022-10-17T18:54:13.031Z,17.00
2022-10-17T18:56:41.168Z,16.90
2022-10-17T18:59:09.179Z,16.90
2022-10-17T19:01:37.240Z,16.90
2022-10-17T19:04:05.288Z,16.90
2022-10-17T19:06:33.564Z,16.90
2022-10-17T19:09:02.742Z,16.80
2022-10-17T19:11:34.152Z,16.80
2022-10-17T19:14:04.418Z,16.80
2022-10-17T19:16:34.159Z,16.70
2022-10-17T19:19:05.715Z,16.70
2022-10-17T19:21:34.101Z,16.60
2022-10-17T19:24:04.350Z,16.60
2022-10-17T19:26:36.809Z,16.60
2022-10-17T19:29:05.788Z,16.60
2022-10-17T19:31:36.461Z,16.50
2022-10-17T19:34:05.374Z,16.50
2022-10-17T19:36:35.370Z,16.50
2022-10-17T19:39:04.807Z,16.50
2022-10-17T19:41:35.423Z,16.50
2022-10-17T19:44:03.573Z,16.50
2022-10-17T19:46:33.901Z,16.50
2022-10-17T19:49:02.117Z,16.50
2022-10-17T19:51:30.764Z,16.50
2022-10-17T19:54:01.448Z,16.50
2022-10-17T19:56:31.541Z,16.50
2022-10-17T19:59:01.027Z,16.40
2022-10-17T20:01:31.348Z,16.40
2022-10-17T20:03:59.386Z,16.40
2022-10-17T20:06:28.080Z,16.50
2022-10-17T20:08:56.636Z,16.40
2022-10-17T20:11:26.222Z,16.40
2022-10-17T20:13:54.764Z,16.40
2022-10-17T20:16:26.615Z,16.40
2022-10-17T20:18:56.471Z,16.40
2022-10-17T20:21:27.314Z,16.30
2022-10-17T20:23:55.815Z,16.30
2022-10-17T20:26:37.037Z,16.20
2022-10-17T20:29:11.004Z,16.20
2022-10-17T20:31:41.991Z,16.20
2022-10-17T20:34:12.973Z,16.20
2022-10-17T20:36:41.391Z,16.20
2022-10-17T20:39:11.312Z,16.20
2022-10-17T20:41:39.916Z,16.20
2022-10-17T20:44:08.107Z,16.20
2022-10-17T20:46:39.803Z,16.10
2022-10-17T20:49:16.364Z,16.10
2022-10-17T20:51:44.460Z,16.10
2022-10-17T20:54:13.038Z,16.00
2022-10-17T20:56:41.287Z,15.90
2022-10-17T20:59:13.100Z,15.90
2022-10-17T21:01:41.327Z,15.90
2022-10-17T21:06:59.744Z,15.90
2022-10-17T21:09:27.854Z,15.90
2022-10-17T21:11:56.801Z,15.90
2022-10-17T21:14:25.920Z,15.90
2022-10-17T21:16:54.222Z,15.80
2022-10-17T21:19:22.830Z,15.80
2022-10-17T21:21:51.188Z,15.80
2022-10-17T21:24:20.907Z,15.80
2022-10-17T21:26:55.127Z,15.80
2022-10-17T21:29:24.182Z,15.70
2022-10-17T21:31:53.061Z,15.80
2022-10-17T21:34:23.925Z,15.80
2022-10-17T21:36:52.459Z,15.80
2022-10-17T21:39:24.135Z,15.80
2022-10-17T21:41:52.987Z,15.80
2022-10-17T21:44:23.193Z,15.80
2022-10-17T21:46:52.129Z,15.80
2022-10-17T21:49:22.315Z,15.70
2022-10-17T21:51:50.807Z,15.80
2022-10-17T21:54:20.500Z,15.80
2022-10-17T21:56:50.454Z,15.80
2022-10-17T21:59:18.515Z,15.80
2022-10-17T22:01:47.421Z,15.90
2022-10-17T22:04:18.023Z,15.90
2022-10-17T22:06:47.862Z,15.80
2022-10-17T22:09:17.351Z,15.80
2022-10-17T22:11:47.182Z,15.90
2022-10-17T22:14:19.811Z,15.90
2022-10-17T22:16:49.407Z,15.90
2022-10-17T22:19:19.312Z,15.90
2022-10-17T22:21:47.323Z,15.90
2022-10-17T22:24:16.369Z,15.90
2022-10-17T22:26:44.901Z,15.90
2022-10-17T22:29:13.416Z,15.90
2022-10-17T22:31:43.096Z,15.90
2022-10-17T22:34:13.502Z,15.90
2022-10-17T22:36:41.759Z,15.90
2022-10-17T22:39:10.131Z,15.90
2022-10-17T22:41:38.164Z,15.90
2022-10-17T22:44:06.849Z,15.90
2022-10-17T22:46:34.920Z,15.90
2022-10-17T22:49:04.421Z,15.90
2022-10-17T22:51:33.009Z,15.80
2022-10-17T22:54:01.074Z,15.80
2022-10-17T22:56:29.147Z,15.80
2022-10-17T22:58:57.177Z,15.90
2022-10-17T23:01:26.741Z,15.80
2022-10-17T23:03:55.145Z,15.90
2022-10-17T23:06:24.709Z,15.90
2022-10-17T23:08:53.274Z,15.90
2022-10-17T23:11:21.872Z,15.90
2022-10-17T23:13:50.023Z,15.90
2022-10-17T23:16:18.006Z,15.90
2022-10-17T23:18:46.052Z,15.90
2022-10-17T23:21:14.271Z,15.90
2022-10-17T23:23:43.653Z,15.90
2022-10-17T23:26:15.193Z,15.90
2022-10-17T23:28:44.217Z,15.90
2022-10-17T23:31:14.586Z,15.90
2022-10-17T23:33:42.969Z,15.90
2022-10-17T23:36:12.258Z,15.90
2022-10-17T23:38:40.648Z,15.90
2022-10-17T23:41:10.624Z,15.90
2022-10-17T23:43:38.884Z,15.90
2022-10-17T23:46:07.863Z,15.90
2022-10-17T23:48:36.115Z,15.90
2022-10-17T23:51:04.460Z,15.90
2022-10-17T23:53:32.612Z,15.90
2022-10-17T23:56:00.698Z,15.90
2022-10-17T23:58:30.208Z,15.90
